Time;durP1;ratioP1;P1;durP2;ratioP2;P2;SDS_P1;SDS_P2;PMS_P1;PMS_P2;Temp;Humidity;BMP_temperature;BMP_pressure;BME280_temperature;BME280_humidity;BME280_pressure;Samples;Min_cycle;Max_cycle;Signal;HPM_P1;HPM_P2
2023/07/22 00:00:32;;;;;;;3.28;1.75;;;14.30;99.90;;;;;;5154469;27;20115;-49
2023/07/22 00:02:57;;;;;;;4.07;2.00;;;14.30;99.90;;;;;;5154878;27;20126;-47
2023/07/22 00:05:23;;;;;;;5.80;2.03;;;14.30;99.90;;;;;;5154468;27;20093;-43
2023/07/22 00:07:52;;;;;;;4.93;1.98;;;14.30;99.90;;;;;;5139806;27;20079;-50
2023/07/22 00:10:18;;;;;;;3.38;1.83;;;14.20;99.90;;;;;;5154178;27;20035;-47
2023/07/22 00:12:44;;;;;;;4.95;1.90;;;14.20;99.90;;;;;;5154283;27;20386;-52
2023/07/22 00:15:12;;;;;;;3.58;1.90;;;14.20;99.90;;;;;;5154631;27;20019;-53
2023/07/22 00:17:41;;;;;;;4.85;2.13;;;14.10;99.90;;;;;;5153061;27;20019;-46
2023/07/22 00:20:11;;;;;;;5.18;1.98;;;14.30;99.90;;;;;;5154449;27;20075;-47
2023/07/22 00:22:39;;;;;;;;;;;14.30;99.90;;;;;;5154735;27;20109;-49
2023/07/22 00:25:10;;;;;;;3.20;1.60;;;14.30;99.90;;;;;;5154504;27;19940;-52
2023/07/22 00:27:40;;;;;;;3.83;2.00;;;14.30;99.90;;;;;;5154095;27;20110;-49
2023/07/22 00:30:07;;;;;;;6.15;2.10;;;14.40;99.90;;;;;;5154066;27;20079;-49
2023/07/22 00:32:33;;;;;;;4.18;1.95;;;14.40;99.90;;;;;;5154009;27;20109;-47
2023/07/22 00:34:59;;;;;;;3.85;1.90;;;14.40;99.90;;;;;;5146526;27;20138;-48
2023/07/22 00:37:25;;;;;;;4.32;1.92;;;14.40;99.90;;;;;;5154313;27;20072;-45
2023/07/22 00:39:51;;;;;;;4.22;1.80;;;14.30;99.90;;;;;;5154119;27;20034;-50
2023/07/22 00:42:16;;;;;;;4.88;1.70;;;14.30;99.90;;;;;;5153643;27;20038;-50
2023/07/22 00:44:42;;;;;;;4.47;1.95;;;14.30;99.90;;;;;;5141767;27;20066;-45
2023/07/22 00:47:08;;;;;;;5.10;2.10;;;14.30;99.90;;;;;;5151201;27;20479;-51
2023/07/22 00:49:35;;;;;;;3.15;1.92;;;14.30;99.90;;;;;;5153350;27;20019;-43
2023/07/22 00:52:02;;;;;;;3.38;1.77;;;14.30;99.90;;;;;;5153490;27;20023;-44
2023/07/22 00:54:29;;;;;;;3.95;1.75;;;14.20;99.90;;;;;;5153710;27;20033;-52
2023/07/22 00:56:57;;;;;;;5.82;2.10;;;14.20;99.90;;;;;;5153210;27;20076;-51
2023/07/22 00:59:23;;;;;;;3.83;1.67;;;14.20;99.90;;;;;;5153459;27;20015;-43
2023/07/22 01:01:49;;;;;;;4.63;1.83;;;14.20;99.90;;;;;;5153486;27;20018;-44
2023/07/22 01:04:18;;;;;;;4.35;1.60;;;14.10;99.90;;;;;;5153471;27;20022;-45
2023/07/22 01:06:44;;;;;;;;;;;14.00;99.90;;;;;;5145019;27;20027;-43
2023/07/22 01:09:10;;;;;;;3.63;2.05;;;14.00;99.90;;;;;;5146601;27;19903;-43
2023/07/22 01:11:36;;;;;;;4.47;2.08;;;14.00;99.90;;;;;;5153086;27;20023;-44
2023/07/22 01:14:03;;;;;;;5.45;2.30;;;13.90;99.90;;;;;;5153486;27;20038;-43
2023/07/22 01:16:29;;;;;;;4.28;1.77;;;13.90;99.90;;;;;;5153282;27;20027;-43
2023/07/22 01:18:55;;;;;;;4.55;1.90;;;13.90;99.90;;;;;;5152660;27;20019;-43
2023/07/22 01:21:23;;;;;;;5.22;2.40;;;13.90;99.90;;;;;;5153311;27;20374;-42
2023/07/22 01:23:50;;;;;;;4.18;2.30;;;13.90;99.90;;;;;;5153434;27;20039;-43
2023/07/22 01:26:15;;;;;;;5.50;2.25;;;13.90;99.90;;;;;;5153150;27;20029;-53
2023/07/22 01:28:41;;;;;;;4.95;2.42;;;13.80;99.90;;;;;;5124250;27;20030;-46
2023/07/22 01:31:07;;;;;;;4.80;2.20;;;13.80;99.90;;;;;;5153045;27;20033;-43
2023/07/22 01:33:32;;;;;;;4.15;2.00;;;13.80;99.90;;;;;;5152879;27;20019;-44
2023/07/22 01:35:59;;;;;;;3.50;1.60;;;13.70;99.90;;;;;;5152986;27;20019;-50
2023/07/22 01:38:25;;;;;;;7.53;2.30;;;13.60;99.90;;;;;;5153036;27;20023;-52
2023/07/22 01:40:50;;;;;;;5.65;2.17;;;13.60;99.90;;;;;;5153031;27;20412;-43
2023/07/22 01:43:16;;;;;;;4.65;2.30;;;13.60;99.90;;;;;;5152512;27;20370;-43
2023/07/22 01:45:42;;;;;;;6.75;2.30;;;13.50;99.90;;;;;;5152877;27;20019;-53
2023/07/22 01:48:08;;;;;;;3.55;2.13;;;13.50;99.90;;;;;;5152412;27;20159;-45
2023/07/22 01:50:33;;;;;;;4.50;1.90;;;13.40;99.90;;;;;;5152445;27;20046;-44
2023/07/22 01:52:59;;;;;;;3.83;1.92;;;13.30;99.90;;;;;;5152237;27;20039;-43
2023/07/22 01:55:25;;;;;;;5.40;2.00;;;13.10;99.90;;;;;;5152465;27;20035;-47
2023/07/22 01:57:51;;;;;;;3.00;1.83;;;13.00;99.90;;;;;;5151656;27;20038;-45
2023/07/22 02:00:16;;;;;;;3.83;2.03;;;13.00;99.90;;;;;;5152540;27;20341;-55
2023/07/22 02:02:42;;;;;;;4.85;1.90;;;12.90;99.90;;;;;;5152344;27;20023;-45
2023/07/22 02:05:12;;;;;;;4.25;2.08;;;13.00;99.90;;;;;;5152505;27;20059;-48
2023/07/22 02:07:38;;;;;;;3.97;1.85;;;13.00;99.90;;;;;;5137671;27;20094;-46
2023/07/22 02:10:05;;;;;;;4.10;2.00;;;12.90;99.90;;;;;;5152120;27;20105;-43
2023/07/22 02:12:30;;;;;;;3.72;1.95;;;13.00;99.90;;;;;;5152231;27;20018;-49
2023/07/22 02:14:56;;;;;;;6.57;1.85;;;13.00;99.90;;;;;;5152156;27;20023;-46
2023/07/22 02:17:23;;;;;;;6.60;2.30;;;13.00;99.90;;;;;;5136958;27;20018;-43
2023/07/22 02:19:49;;;;;;;3.53;1.73;;;13.00;99.90;;;;;;5130449;27;20499;-51
2023/07/22 02:22:14;;;;;;;3.17;1.92;;;13.00;99.90;;;;;;5134971;27;20034;-45
2023/07/22 02:24:40;;;;;;;3.08;1.63;;;13.00;99.90;;;;;;5136269;27;20110;-47
2023/07/22 02:27:08;;;;;;;3.38;1.92;;;13.00;99.90;;;;;;5137286;27;20015;-46
2023/07/22 02:29:34;;;;;;;3.28;1.60;;;13.00;99.90;;;;;;5151329;27;20027;-45
2023/07/22 02:32:00;;;;;;;4.63;2.03;;;13.00;99.90;;;;;;5152057;27;20383;-44
2023/07/22 02:34:25;;;;;;;4.45;2.40;;;13.00;99.90;;;;;;5143943;27;20493;-43
2023/07/22 02:36:51;;;;;;;3.70;2.05;;;12.90;99.90;;;;;;5145636;27;20015;-45
2023/07/22 02:39:16;;;;;;;6.22;2.30;;;12.90;99.90;;;;;;5151780;27;20109;-48
2023/07/22 02:41:42;;;;;;;4.22;2.00;;;12.80;99.90;;;;;;5151874;27;20026;-51
2023/07/22 02:44:08;;;;;;;4.35;1.90;;;12.80;99.90;;;;;;5151243;27;20088;-45
2023/07/22 02:46:33;;;;;;;3.97;1.98;;;12.70;99.90;;;;;;5151863;27;20151;-55
2023/07/22 02:48:59;;;;;;;3.38;1.88;;;12.70;99.90;;;;;;5151932;27;20394;-43
2023/07/22 02:51:24;;;;;;;4.57;2.20;;;12.70;99.90;;;;;;5144559;27;20064;-46
2023/07/22 02:53:50;;;;;;;4.28;2.30;;;12.80;99.90;;;;;;5145002;27;20018;-47
2023/07/22 02:56:16;;;;;;;3.78;1.75;;;12.80;99.90;;;;;;5151368;27;20042;-43
2023/07/22 02:58:42;;;;;;;4.95;1.75;;;12.80;99.90;;;;;;5150628;27;20033;-46
2023/07/22 03:01:08;;;;;;;3.13;1.42;;;12.90;99.90;;;;;;5151640;27;20022;-46
2023/07/22 03:03:34;;;;;;;4.63;1.83;;;12.90;99.90;;;;;;5151948;27;20035;-44
2023/07/22 03:06:01;;;;;;;2.72;1.70;;;12.90;99.90;;;;;;5151787;27;21214;-50
2023/07/22 03:08:27;;;;;;;4.00;2.25;;;13.00;99.90;;;;;;5151522;27;20094;-46
2023/07/22 03:10:52;;;;;;;4.72;1.88;;;13.00;99.90;;;;;;5150913;27;20049;-47
2023/07/22 03:13:18;;;;;;;4.43;1.48;;;13.10;99.90;;;;;;5151290;27;20391;-43
2023/07/22 03:15:44;;;;;;;2.50;1.42;;;13.20;99.90;;;;;;5151638;27;20068;-49
2023/07/22 03:18:10;;;;;;;7.50;2.30;;;13.20;99.90;;;;;;5147953;27;20123;-46
2023/07/22 03:20:37;;;;;;;3.10;1.67;;;13.20;99.90;;;;;;5151690;27;20101;-48
2023/07/22 03:23:03;;;;;;;2.92;1.40;;;13.20;99.90;;;;;;5151655;27;20052;-46
2023/07/22 03:25:29;;;;;;;3.63;1.73;;;13.30;99.90;;;;;;5144602;27;20019;-43
2023/07/22 03:27:55;;;;;;;3.60;1.77;;;13.20;99.90;;;;;;5143688;27;20053;-50
2023/07/22 03:30:22;;;;;;;3.47;1.75;;;13.20;99.90;;;;;;5151536;27;20390;-46
2023/07/22 03:32:48;;;;;;;2.75;1.40;;;13.20;99.90;;;;;;5151294;27;20389;-50
2023/07/22 03:35:14;;;;;;;3.33;1.42;;;13.20;99.90;;;;;;5151343;27;20022;-51
2023/07/22 03:37:40;;;;;;;4.10;1.80;;;13.20;99.90;;;;;;5151001;27;20019;-43
2023/07/22 03:40:10;;;;;;;2.55;1.50;;;13.30;99.90;;;;;;5151162;27;20026;-51
2023/07/22 03:42:36;;;;;;;5.07;1.60;;;13.20;99.90;;;;;;5145297;27;20369;-45
2023/07/22 03:45:02;;;;;;;3.08;1.55;;;13.20;99.90;;;;;;5133120;27;20122;-50
2023/07/22 03:47:27;;;;;;;4.35;2.10;;;13.20;99.90;;;;;;5133920;27;20023;-49
2023/07/22 03:49:53;;;;;;;2.33;1.13;;;13.10;99.90;;;;;;5134439;27;20025;-43
2023/07/22 03:52:19;;;;;;;2.05;1.27;;;13.10;99.90;;;;;;5132547;27;20468;-51
2023/07/22 03:54:44;;;;;;;2.22;1.33;;;13.10;99.90;;;;;;5134180;27;20034;-47
2023/07/22 03:57:10;;;;;;;3.65;1.45;;;13.10;99.90;;;;;;5133602;27;20118;-49
2023/07/22 03:59:36;;;;;;;3.08;1.40;;;13.10;99.90;;;;;;5134175;27;20031;-46
2023/07/22 04:02:02;;;;;;;4.47;1.55;;;13.10;99.90;;;;;;5133939;27;20027;-43
2023/07/22 04:04:28;;;;;;;4.32;1.80;;;13.10;99.90;;;;;;5133891;27;20019;-48
2023/07/22 04:06:53;;;;;;;2.75;1.23;;;13.10;99.90;;;;;;5132822;27;20030;-43
2023/07/22 04:09:19;;;;;;;3.00;1.33;;;13.10;99.90;;;;;;5133821;27;20072;-43
2023/07/22 04:11:44;;;;;;;3.63;1.75;;;13.10;99.90;;;;;;5133616;27;20019;-44
2023/07/22 04:14:12;;;;;;;3.40;1.40;;;13.10;99.90;;;;;;5140928;27;20383;-51
2023/07/22 04:16:38;;;;;;;2.55;1.40;;;13.10;99.90;;;;;;5146483;27;20027;-47
2023/07/22 04:19:03;;;;;;;3.42;1.60;;;13.10;99.90;;;;;;5142536;27;20023;-49
2023/07/22 04:21:29;;;;;;;3.13;1.55;;;13.10;99.90;;;;;;5140341;27;20023;-41
2023/07/22 04:23:55;;;;;;;4.38;1.70;;;13.10;99.90;;;;;;5141189;27;20042;-45
2023/07/22 04:26:20;;;;;;;4.22;1.95;;;13.10;99.90;;;;;;5147763;27;20019;-43
2023/07/22 04:28:46;;;;;;;6.97;1.83;;;13.00;99.90;;;;;;5139540;27;20027;-49
2023/07/22 04:31:12;;;;;;;2.78;1.55;;;13.00;99.90;;;;;;5137395;27;20023;-49
2023/07/22 04:33:37;;;;;;;3.75;1.48;;;13.00;99.90;;;;;;5151166;27;20027;-45
2023/07/22 04:36:03;;;;;;;2.30;1.27;;;12.90;99.90;;;;;;5150194;27;20049;-46
2023/07/22 04:38:29;;;;;;;1.88;1.20;;;12.90;99.90;;;;;;5149626;27;20034;-43
2023/07/22 04:40:54;;;;;;;3.20;1.48;;;12.90;99.90;;;;;;5146968;27;20793;-48
2023/07/22 04:43:20;;;;;;;2.83;1.33;;;12.90;99.90;;;;;;5139786;27;20035;-48
2023/07/22 04:45:49;;;;;;;3.53;1.73;;;12.90;99.90;;;;;;5133469;27;20483;-45
2023/07/22 04:48:16;;;;;;;3.38;1.40;;;12.90;99.90;;;;;;5133325;27;20023;-43
2023/07/22 04:50:44;;;;;;;2.50;1.35;;;12.90;99.90;;;;;;5133031;27;20023;-43
2023/07/22 04:53:12;;;;;;;2.33;1.42;;;12.90;99.90;;;;;;5132135;27;20094;-44
2023/07/22 04:55:38;;;;;;;3.25;1.58;;;12.90;99.90;;;;;;5132642;27;20043;-42
2023/07/22 04:58:04;;;;;;;6.15;1.60;;;12.90;99.90;;;;;;5131667;27;20110;-42
2023/07/22 05:00:30;;;;;;;5.95;1.90;;;13.00;99.90;;;;;;5132857;27;20015;-42
2023/07/22 05:02:56;;;;;;;3.70;1.80;;;13.00;99.90;;;;;;5138477;27;20023;-42
2023/07/22 05:05:22;;;;;;;3.15;1.98;;;13.00;99.90;;;;;;5138451;27;20571;-46
2023/07/22 05:07:50;;;;;;;3.85;1.70;;;13.10;99.90;;;;;;5132210;27;20441;-46
2023/07/22 05:10:16;;;;;;;4.50;1.67;;;13.10;99.90;;;;;;5132245;27;20031;-43
2023/07/22 05:12:42;;;;;;;2.58;1.50;;;13.10;99.90;;;;;;5132314;27;20015;-46
2023/07/22 05:15:11;;;;;;;3.13;1.40;;;13.10;99.90;;;;;;5132819;27;20019;-46
2023/07/22 05:17:37;;;;;;;3.15;1.58;;;13.20;99.90;;;;;;5131209;27;20395;-48
2023/07/22 05:20:06;;;;;;;2.47;1.50;;;13.20;99.90;;;;;;5132672;27;20019;-50
2023/07/22 05:22:32;;;;;;;2.10;1.30;;;13.30;99.90;;;;;;5130907;27;20545;-46
2023/07/22 05:24:57;;;;;;;3.90;1.88;;;13.40;99.90;;;;;;5130391;27;20043;-51
2023/07/22 05:27:24;;;;;;;3.35;1.40;;;13.40;99.90;;;;;;5141773;27;20046;-51
2023/07/22 05:29:49;;;;;;;2.97;1.50;;;13.50;99.90;;;;;;5130479;27;20054;-49
2023/07/22 05:32:15;;;;;;;3.13;1.50;;;13.50;99.90;;;;;;5141572;27;20050;-50
2023/07/22 05:34:41;;;;;;;2.63;1.48;;;13.60;99.90;;;;;;5130394;27;20487;-44
2023/07/22 05:37:06;;;;;;;3.05;1.50;;;13.70;99.90;;;;;;5148397;27;20502;-46
2023/07/22 05:39:32;;;;;;;3.35;1.33;;;13.70;99.90;;;;;;5140716;27;20027;-43
2023/07/22 05:41:57;;;;;;;3.47;1.55;;;13.80;99.90;;;;;;5131952;27;20091;-45
2023/07/22 05:44:23;;;;;;;3.20;1.63;;;13.80;99.90;;;;;;5136232;27;20070;-55
2023/07/22 05:46:49;;;;;;;4.85;1.63;;;13.90;99.90;;;;;;5131935;27;20102;-48
2023/07/22 05:49:14;;;;;;;2.70;1.38;;;13.90;99.90;;;;;;5131956;27;20047;-55
2023/07/22 05:51:40;;;;;;;3.17;1.35;;;14.00;99.90;;;;;;5131806;27;20076;-49
2023/07/22 05:54:06;;;;;;;2.28;1.48;;;14.10;99.90;;;;;;5131881;27;20082;-52
2023/07/22 05:56:31;;;;;;;3.13;1.52;;;14.20;99.90;;;;;;5130432;27;20047;-49
2023/07/22 05:58:57;;;;;;;4.00;1.38;;;14.30;99.90;;;;;;5131868;27;20015;-51
2023/07/22 06:01:26;;;;;;;2.42;1.20;;;14.40;99.90;;;;;;5131838;27;20034;-50
2023/07/22 06:03:52;;;;;;;3.15;1.35;;;14.50;99.90;;;;;;5131359;27;20031;-45
2023/07/22 06:06:18;;;;;;;4.15;1.42;;;14.60;99.90;;;;;;5131713;27;20030;-46
2023/07/22 06:08:43;;;;;;;3.35;1.23;;;14.60;99.90;;;;;;5131699;27;20023;-47
2023/07/22 06:11:09;;;;;;;3.20;1.25;;;14.70;99.90;;;;;;5140970;27;20022;-43
2023/07/22 06:13:35;;;;;;;3.78;1.30;;;14.80;99.90;;;;;;5131135;27;20437;-44
2023/07/22 06:16:01;;;;;;;3.65;1.50;;;14.80;99.90;;;;;;5131574;27;20111;-51
2023/07/22 06:18:26;;;;;;;2.53;1.02;;;14.80;99.90;;;;;;5131400;27;20475;-48
2023/07/22 06:20:52;;;;;;;1.52;0.95;;;14.90;99.90;;;;;;5131654;27;20035;-44
2023/07/22 06:23:18;;;;;;;3.50;1.27;;;14.90;99.90;;;;;;5131148;27;20051;-52
2023/07/22 06:25:43;;;;;;;4.15;1.45;;;14.90;99.90;;;;;;5131559;27;20015;-47
2023/07/22 06:28:09;;;;;;;4.15;1.20;;;15.00;99.90;;;;;;5146578;27;20027;-46
2023/07/22 06:30:35;;;;;;;3.38;1.30;;;15.10;99.90;;;;;;5152359;27;20495;-44
2023/07/22 06:33:00;;;;;;;3.20;1.17;;;15.20;99.90;;;;;;5152050;27;20394;-46
2023/07/22 06:35:26;;;;;;;5.97;1.50;;;15.40;99.90;;;;;;5150214;27;20022;-43
2023/07/22 06:37:52;;;;;;;2.08;0.98;;;15.60;99.90;;;;;;5152308;27;20098;-50
2023/07/22 06:40:18;;;;;;;2.42;1.10;;;15.90;99.90;;;;;;5152043;27;20499;-52
2023/07/22 06:42:43;;;;;;;2.42;1.10;;;16.40;99.90;;;;;;5152245;27;20034;-44
2023/07/22 06:45:09;;;;;;;1.63;1.02;;;16.70;99.90;;;;;;5151190;27;20351;-52
2023/07/22 06:47:36;;;;;;;1.63;0.75;;;17.00;99.90;;;;;;5148708;27;20058;-48
2023/07/22 06:50:02;;;;;;;3.53;1.20;;;17.40;99.90;;;;;;5149901;27;20026;-47
2023/07/22 06:52:28;;;;;;;1.80;0.82;;;18.00;99.90;;;;;;5149918;27;20018;-50
2023/07/22 06:54:54;;;;;;;3.03;0.93;;;18.40;99.90;;;;;;5150087;27;20143;-43
2023/07/22 06:57:19;;;;;;;2.92;1.00;;;18.70;99.90;;;;;;5148563;27;20050;-45
2023/07/22 06:59:45;;;;;;;0.88;0.70;;;19.00;99.90;;;;;;5150266;27;20110;-51
2023/07/22 07:02:10;;;;;;;1.75;0.85;;;19.00;99.90;;;;;;5151701;27;20072;-47
2023/07/22 07:04:36;;;;;;;1.90;0.75;;;19.10;99.90;;;;;;5151894;27;20060;-46
2023/07/22 07:07:02;;;;;;;2.53;0.80;;;19.10;99.90;;;;;;5151833;27;20023;-44
2023/07/22 07:09:28;;;;;;;3.28;0.73;;;19.00;99.90;;;;;;5152020;27;20398;-48
2023/07/22 07:11:56;;;;;;;3.03;1.00;;;18.80;99.90;;;;;;5151707;27;20019;-50
2023/07/22 07:14:23;;;;;;;2.92;0.95;;;19.00;99.90;;;;;;5151695;27;20029;-53
2023/07/22 07:16:49;;;;;;;1.42;0.52;;;19.60;99.90;;;;;;5153525;27;20027;-50
2023/07/22 07:19:15;;;;;;;0.88;0.50;;;20.30;99.90;;;;;;5155434;27;20019;-47
2023/07/22 07:21:40;;;;;;;2.70;0.63;;;21.00;99.90;;;;;;5155981;27;20458;-46
2023/07/22 07:24:06;;;;;;;2.75;0.60;;;21.80;99.90;;;;;;5155682;27;20494;-51
2023/07/22 07:26:31;;;;;;;0.90;0.40;;;22.60;99.90;;;;;;5140854;27;20072;-51
2023/07/22 07:28:57;;;;;;;4.40;0.73;;;23.30;99.90;;;;;;5155613;27;20514;-56
2023/07/22 07:31:23;;;;;;;1.27;0.75;;;23.90;99.90;;;;;;5155361;27;20076;-49
2023/07/22 07:33:48;;;;;;;1.02;0.47;;;23.50;99.90;;;;;;5155163;27;20015;-53
2023/07/22 07:36:14;;;;;;;1.05;0.50;;;22.40;99.90;;;;;;5155650;27;20030;-48
2023/07/22 07:38:40;;;;;;;1.67;0.65;;;21.10;99.90;;;;;;5155361;27;20022;-47
2023/07/22 07:41:08;;;;;;;2.45;0.73;;;20.10;99.90;;;;;;5155593;27;20113;-53
2023/07/22 07:43:34;;;;;;;1.42;0.60;;;19.20;99.90;;;;;;5155150;27;20038;-55
2023/07/22 07:46:23;;;;;;;1.50;0.70;;;18.60;99.90;;;;;;5155433;27;20022;-55
2023/07/22 07:48:55;;;;;;;2.58;0.98;;;17.90;99.90;;;;;;5155286;27;20026;-52
2023/07/22 07:51:22;;;;;;;2.25;0.60;;;17.60;99.90;;;;;;5155499;27;20075;-51
2023/07/22 07:53:48;;;;;;;1.63;0.85;;;17.40;99.90;;;;;;5155201;27;20021;-54
2023/07/22 07:56:16;;;;;;;5.82;0.95;;;17.20;99.90;;;;;;5155019;27;20038;-50
2023/07/22 07:58:42;;;;;;;1.75;0.57;;;17.30;99.90;;;;;;5155092;27;20030;-47
2023/07/22 08:01:08;;;;;;;1.60;0.70;;;17.40;99.90;;;;;;5126259;27;20019;-47
2023/07/22 08:03:35;;;;;;;3.58;0.90;;;17.50;99.90;;;;;;5154865;27;20164;-48
2023/07/22 08:06:01;;;;;;;1.55;0.65;;;18.00;99.90;;;;;;5154753;27;20071;-53
2023/07/22 08:08:28;;;;;;;4.18;0.77;;;18.70;99.90;;;;;;5155069;27;20015;-44
2023/07/22 08:11:15;;;;;;;2.70;0.90;;;19.00;99.90;;;;;;5154653;27;20019;-44
2023/07/22 08:13:42;;;;;;;2.60;0.80;;;18.90;99.90;;;;;;5154910;27;20026;-52
2023/07/22 08:16:09;;;;;;;3.53;0.80;;;18.80;99.90;;;;;;5154754;27;20019;-49
2023/07/22 08:18:36;;;;;;;3.58;0.90;;;18.70;99.90;;;;;;5154776;27;20067;-45
2023/07/22 08:21:03;;;;;;;2.05;0.88;;;18.30;99.90;;;;;;5153250;27;20122;-43
2023/07/22 08:23:30;;;;;;;2.40;0.80;;;18.00;99.90;;;;;;5154615;27;20049;-49
2023/07/22 08:25:55;;;;;;;2.47;0.77;;;17.70;99.90;;;;;;5143832;27;20106;-50
2023/07/22 08:28:21;;;;;;;2.35;0.98;;;17.50;99.90;;;;;;5150384;27;20101;-48
2023/07/22 08:30:50;;;;;;;1.55;0.80;;;17.20;99.90;;;;;;5154489;27;20097;-54
2023/07/22 08:33:16;;;;;;;4.13;0.90;;;17.00;99.90;;;;;;5154001;27;20050;-53
2023/07/22 08:35:42;;;;;;;1.75;0.68;;;16.80;99.90;;;;;;5154445;27;20058;-51
2023/07/22 08:38:09;;;;;;;4.70;1.05;;;16.80;99.90;;;;;;5154413;27;20029;-52
2023/07/22 08:40:36;;;;;;;3.55;1.08;;;16.70;99.90;;;;;;5154144;27;20078;-54
2023/07/22 08:43:06;;;;;;;2.83;1.00;;;16.80;99.90;;;;;;5154341;27;20103;-54
2023/07/22 08:45:36;;;;;;;2.38;1.23;;;16.80;99.90;;;;;;5153992;27;20022;-48
2023/07/22 08:48:11;;;;;;;1.40;0.75;;;16.90;99.90;;;;;;5152785;27;20697;-47
2023/07/22 08:50:52;;;;;;;3.70;0.60;;;17.00;99.90;;;;;;5153659;27;20015;-45
2023/07/22 08:53:21;;;;;;;3.58;0.90;;;17.30;99.90;;;;;;5154054;27;20471;-55
2023/07/22 08:55:47;;;;;;;6.72;1.00;;;17.40;99.90;;;;;;5153891;27;20129;-45
2023/07/22 08:58:14;;;;;;;1.48;0.90;;;17.80;99.90;;;;;;5153936;27;20027;-53
2023/07/22 09:00:40;;;;;;;2.50;1.00;;;18.40;99.90;;;;;;5153718;27;20503;-51
2023/07/22 09:03:06;;;;;;;4.55;0.90;;;19.10;99.90;;;;;;5152371;27;20080;-46
2023/07/22 09:05:34;;;;;;;2.53;0.70;;;19.40;99.90;;;;;;5153570;27;20106;-49
2023/07/22 09:08:06;;;;;;;2.85;0.88;;;19.50;99.90;;;;;;5153816;27;20095;-44
2023/07/22 09:10:32;;;;;;;3.13;0.88;;;19.80;99.90;;;;;;5153778;27;20030;-49
2023/07/22 09:12:59;;;;;;;1.80;1.02;;;19.80;99.90;;;;;;5153422;27;20467;-53
2023/07/22 09:15:25;;;;;;;1.85;0.73;;;19.80;99.90;;;;;;5153456;27;20019;-49
2023/07/22 09:17:51;;;;;;;5.00;0.80;;;19.80;99.90;;;;;;5153284;27;20019;-44
2023/07/22 09:20:17;;;;;;;3.25;1.00;;;19.70;99.90;;;;;;5153428;27;20014;-50
2023/07/22 09:22:47;;;;;;;2.15;0.88;;;19.90;99.90;;;;;;5153424;27;20027;-47
2023/07/22 09:25:15;;;;;;;1.77;0.68;;;20.20;99.90;;;;;;5148618;27;20023;-48
2023/07/22 09:27:42;;;;;;;2.10;0.70;;;20.40;99.90;;;;;;5143789;27;20023;-51
2023/07/22 09:30:34;;;;;;;1.33;0.68;;;20.60;99.90;;;;;;5153024;27;20077;-45
2023/07/22 09:33:04;;;;;;;1.30;0.68;;;20.70;99.90;;;;;;5153004;27;20030;-50
2023/07/22 09:35:45;;;;;;;1.50;0.70;;;20.60;99.90;;;;;;5153083;27;20087;-51
2023/07/22 09:38:11;;;;;;;1.58;0.68;;;20.60;99.90;;;;;;5152620;27;20113;-46
2023/07/22 09:40:40;;;;;;;2.03;0.73;;;20.30;99.90;;;;;;5152930;27;20074;-47
2023/07/22 09:43:06;;;;;;;;;;;20.40;99.90;;;;;;5153295;27;20027;-46
2023/07/22 09:45:32;;;;;;;4.20;0.63;;;20.50;99.90;;;;;;5152743;27;19907;-49
2023/07/22 09:47:58;;;;;;;1.23;0.55;;;20.50;99.90;;;;;;5152858;27;20027;-48
2023/07/22 09:50:26;;;;;;;2.17;0.73;;;20.30;99.90;;;;;;5152555;27;20034;-48
2023/07/22 09:52:57;;;;;;;0.88;0.60;;;20.40;99.90;;;;;;5152862;27;20083;-48
2023/07/22 09:55:28;;;;;;;4.85;1.15;;;20.60;99.90;;;;;;5152353;27;20038;-46
2023/07/22 09:58:10;;;;;;;2.22;1.00;;;20.80;99.90;;;;;;5152716;27;20031;-48
2023/07/22 10:00:36;;;;;;;1.30;0.60;;;20.70;99.90;;;;;;5152417;27;20033;-48
2023/07/22 10:03:06;;;;;;;1.88;1.02;;;21.00;99.90;;;;;;5152481;27;20035;-50
2023/07/22 10:05:34;;;;;;;2.38;0.70;;;21.40;99.90;;;;;;5152403;27;20111;-50
2023/07/22 10:08:02;;;;;;;1.98;0.68;;;21.80;99.90;;;;;;5152466;27;20041;-48
2023/07/22 10:10:38;;;;;;;4.80;2.13;;;22.10;99.90;;;;;;5151019;27;20027;-45
2023/07/22 10:13:04;;;;;;;0.73;0.50;;;22.20;99.90;;;;;;5151661;27;20365;-44
2023/07/22 10:15:33;;;;;;;1.83;0.93;;;22.30;99.90;;;;;;5152494;27;20018;-46
2023/07/22 10:18:00;;;;;;;1.77;0.63;;;22.40;99.90;;;;;;5151991;27;20018;-49
2023/07/22 10:20:26;;;;;;;2.58;0.70;;;22.40;99.90;;;;;;5151778;27;20019;-53
2023/07/22 10:22:51;;;;;;;1.10;0.45;;;22.30;99.90;;;;;;5146600;27;20034;-42
2023/07/22 10:25:19;;;;;;;1.67;0.60;;;22.10;99.90;;;;;;5136327;27;20651;-48
2023/07/22 10:27:46;;;;;;;1.20;0.55;;;22.20;99.90;;;;;;5132415;27;20019;-46
2023/07/22 10:30:13;;;;;;;1.17;0.65;;;21.90;99.90;;;;;;5134142;27;20479;-52
2023/07/22 10:32:41;;;;;;;0.77;0.60;;;21.60;99.90;;;;;;5133583;27;20114;-51
2023/07/22 10:35:11;;;;;;;1.42;0.70;;;21.10;99.90;;;;;;5140306;27;20023;-49
2023/07/22 10:37:38;;;;;;;0.88;0.70;;;21.00;99.90;;;;;;5126860;27;20069;-47
2023/07/22 10:40:28;;;;;;;4.10;0.90;;;20.80;99.90;;;;;;5150302;27;20094;-49
2023/07/22 10:43:05;;;;;;;1.58;0.60;;;20.60;99.90;;;;;;5132228;27;20023;-45
2023/07/22 10:45:40;;;;;;;1.77;0.52;;;20.50;99.90;;;;;;5135369;27;20037;-47
2023/07/22 10:48:10;;;;;;;1.13;0.60;;;20.40;99.90;;;;;;5131115;27;20569;-54
2023/07/22 10:50:41;;;;;;;1.80;0.82;;;20.50;99.90;;;;;;5139545;27;20391;-48
2023/07/22 10:53:09;;;;;;;1.02;0.50;;;20.60;99.90;;;;;;5135305;27;20019;-51
2023/07/22 10:56:19;;;;;;;2.30;0.70;;;20.80;99.90;;;;;;5134988;27;20490;-44
2023/07/22 10:58:44;;;;;;;;;;;21.00;99.90;;;;;;5148739;27;20064;-48
2023/07/22 11:01:28;;;;;;;0.93;0.70;;;20.80;99.90;;;;;;5148976;27;19907;-43
2023/07/22 11:04:14;;;;;;;1.27;0.75;;;20.90;99.90;;;;;;5137855;27;20027;-51
2023/07/22 11:06:46;;;;;;;3.05;0.80;;;20.70;99.90;;;;;;5133915;27;20492;-44
2023/07/22 11:09:33;;;;;;;4.15;0.98;;;20.70;99.90;;;;;;5152216;27;20106;-44
2023/07/22 11:12:01;;;;;;;1.88;0.90;;;20.50;99.90;;;;;;5153818;27;20046;-47
2023/07/22 11:14:31;;;;;;;2.53;0.73;;;20.30;99.90;;;;;;5148864;27;20019;-47
2023/07/22 11:16:58;;;;;;;1.50;0.85;;;20.20;99.90;;;;;;5153395;27;20026;-47
2023/07/22 11:19:25;;;;;;;3.88;0.90;;;20.30;99.90;;;;;;5154288;27;20026;-54
2023/07/22 11:21:52;;;;;;;3.40;1.00;;;20.30;99.90;;;;;;5153009;27;20023;-54
2023/07/22 11:24:19;;;;;;;3.05;1.30;;;20.20;99.90;;;;;;5153172;27;20041;-46
2023/07/22 11:26:46;;;;;;;2.35;1.08;;;19.80;99.90;;;;;;5138615;27;20043;-49
2023/07/22 11:29:13;;;;;;;1.58;0.70;;;19.60;99.90;;;;;;5134669;27;20031;-43
2023/07/22 11:31:45;;;;;;;1.20;0.75;;;19.50;99.90;;;;;;5138619;27;20022;-44
2023/07/22 11:34:12;;;;;;;4.43;1.05;;;19.50;99.90;;;;;;5138267;27;20038;-46
2023/07/22 11:36:38;;;;;;;1.85;1.02;;;19.50;99.90;;;;;;5143720;27;20050;-48
2023/07/22 11:39:08;;;;;;;4.63;0.90;;;19.40;99.90;;;;;;5140385;27;20399;-50
2023/07/22 11:41:34;;;;;;;4.15;0.80;;;19.20;99.90;;;;;;5143525;27;20019;-44
2023/07/22 11:44:01;;;;;;;3.45;1.00;;;19.10;99.90;;;;;;5138454;27;20061;-47
2023/07/22 11:46:28;;;;;;;3.45;1.13;;;19.00;99.90;;;;;;5147203;27;20014;-44
2023/07/22 11:48:54;;;;;;;5.45;1.40;;;18.80;99.90;;;;;;5146101;27;20064;-45
2023/07/22 11:51:22;;;;;;;2.45;1.00;;;18.70;99.90;;;;;;5150049;27;20054;-52
2023/07/22 11:53:49;;;;;;;2.28;0.98;;;18.60;99.90;;;;;;5138678;27;20083;-50
2023/07/22 11:56:23;;;;;;;2.83;1.35;;;18.60;99.90;;;;;;5133562;27;20073;-45
2023/07/22 11:58:53;;;;;;;1.67;1.10;;;18.70;99.90;;;;;;5132878;27;20024;-45
2023/07/22 12:01:19;;;;;;;5.72;1.75;;;18.70;99.90;;;;;;5131110;27;20088;-47
2023/07/22 12:03:45;;;;;;;2.65;1.05;;;18.80;99.90;;;;;;5133567;27;20031;-46
2023/07/22 12:06:12;;;;;;;2.63;1.23;;;18.60;99.90;;;;;;5135105;27;20019;-51
2023/07/22 12:08:45;;;;;;;5.38;1.17;;;18.50;99.90;;;;;;5135708;27;20027;-48
2023/07/22 12:11:32;;;;;;;6.13;1.30;;;18.40;99.90;;;;;;5132831;27;20022;-50
2023/07/22 12:14:13;;;;;;;6.22;1.50;;;18.20;99.90;;;;;;5132647;27;20053;-47
2023/07/22 12:16:41;;;;;;;5.97;1.60;;;18.10;99.90;;;;;;5135756;27;20080;-51
2023/07/22 12:19:08;;;;;;;2.25;1.13;;;18.00;99.90;;;;;;5132989;27;20064;-47
2023/07/22 12:21:34;;;;;;;4.47;1.27;;;17.90;99.90;;;;;;5132803;27;20029;-53
2023/07/22 12:24:01;;;;;;;3.17;1.30;;;17.70;99.90;;;;;;5132639;27;20039;-49
2023/07/22 12:26:27;;;;;;;6.35;1.63;;;17.60;99.90;;;;;;5132953;27;20091;-47
2023/07/22 12:28:53;;;;;;;4.50;1.40;;;17.50;99.90;;;;;;5153299;27;20027;-51
2023/07/22 12:31:18;;;;;;;5.13;1.70;;;17.40;99.90;;;;;;5152805;27;20394;-45
2023/07/22 12:33:44;;;;;;;10.65;1.83;;;17.30;99.90;;;;;;5133722;27;20364;-56
2023/07/22 12:36:09;;;;;;;4.90;1.33;;;17.20;99.90;;;;;;5132731;27;20054;-52
2023/07/22 12:38:35;;;;;;;6.18;1.63;;;17.10;99.90;;;;;;5148236;27;20117;-47
2023/07/22 12:41:02;;;;;;;5.00;1.35;;;17.10;99.90;;;;;;5144405;27;20468;-50
2023/07/22 12:43:27;;;;;;;4.75;1.52;;;17.00;99.90;;;;;;5136272;27;20605;-52
2023/07/22 12:45:53;;;;;;;7.22;1.58;;;16.90;99.90;;;;;;5126995;27;20102;-54
2023/07/22 12:48:19;;;;;;;4.80;1.65;;;16.80;99.90;;;;;;5141078;27;20031;-55